createdAt,value
2018-01-19T00:01:02.151Z,3.4
2018-01-19T00:02:05.473Z,3.4
2018-01-19T00:03:08.820Z,3.4
2018-01-19T00:04:12.304Z,3.3
2018-01-19T00:05:15.714Z,3.3
2018-01-19T00:06:19.293Z,3.3
2018-01-19T00:07:24.739Z,3.3
2018-01-19T00:08:28.233Z,3.3
2018-01-19T00:09:32.644Z,3.3
2018-01-19T00:10:40.964Z,3.4
2018-01-19T00:11:45.307Z,3.3
2018-01-19T00:12:52.032Z,3.4
2018-01-19T00:13:55.464Z,3.5
2018-01-19T00:14:58.718Z,3.4
2018-01-19T00:16:02.234Z,3.4
2018-01-19T00:17:06.234Z,3.4
2018-01-19T00:18:10.118Z,3.2
2018-01-19T00:19:13.518Z,3.3
2018-01-19T00:20:17.578Z,3.3
2018-01-19T00:21:24.496Z,3.3
2018-01-19T00:22:28.601Z,3.3
2018-01-19T00:23:31.940Z,3.3
2018-01-19T00:24:36.326Z,3.3
2018-01-19T00:25:39.708Z,3.3
2018-01-19T00:26:43.746Z,3.3
2018-01-19T00:27:47.770Z,3.3
2018-01-19T00:28:51.246Z,3.3
2018-01-19T00:29:55.210Z,3.3
2018-01-19T00:30:59.729Z,3.3
2018-01-19T00:32:07.329Z,3.4
2018-01-19T00:33:10.759Z,3.4
2018-01-19T00:34:14.850Z,3.4
2018-01-19T00:35:18.733Z,3.4
2018-01-19T00:36:22.700Z,3.3
2018-01-19T00:37:27.539Z,3.4
2018-01-19T00:38:30.862Z,3.4
2018-01-19T00:39:35.816Z,3.4
2018-01-19T00:40:39.043Z,3.5
2018-01-19T00:41:42.956Z,3.5
2018-01-19T00:43:22.639Z,3.5
2018-01-19T00:44:26.096Z,3.4
2018-01-19T00:45:29.585Z,3.4
2018-01-19T00:46:32.862Z,3.5
2018-01-19T00:47:36.284Z,3.4
2018-01-19T00:48:40.635Z,3.4
2018-01-19T00:49:44.621Z,3.4
2018-01-19T00:50:48.236Z,3.4
2018-01-19T00:51:52.318Z,3.4
2018-01-19T00:52:55.685Z,3.4
2018-01-19T00:54:04.159Z,3.4
2018-01-19T00:55:08.172Z,3.5
2018-01-19T00:56:11.582Z,3.5
2018-01-19T00:57:15.907Z,3.4
2018-01-19T00:58:19.117Z,3.4
2018-01-19T00:59:23.114Z,3.4
2018-01-19T01:00:26.567Z,3.4
2018-01-19T01:01:32.697Z,3.3
2018-01-19T01:02:36.830Z,3.3
2018-01-19T01:03:40.185Z,3.3
2018-01-19T01:04:49.643Z,3.4
2018-01-19T01:05:53.040Z,3.3
2018-01-19T01:06:56.343Z,3.4
2018-01-19T01:07:59.698Z,3.3
2018-01-19T01:09:03.614Z,3.2
2018-01-19T01:10:07.661Z,3.3
2018-01-19T01:11:13.144Z,3.2
2018-01-19T01:12:17.718Z,3.2
2018-01-19T01:13:21.272Z,3.2
2018-01-19T01:14:24.588Z,3.2
2018-01-19T01:15:31.619Z,3.2
2018-01-19T01:16:37.164Z,3.2
2018-01-19T01:17:40.516Z,3.1
2018-01-19T01:18:44.517Z,3.2
2018-01-19T01:19:48.129Z,3.2
2018-01-19T01:20:53.733Z,3.2
2018-01-19T01:21:57.152Z,3.1
2018-01-19T01:23:01.512Z,3.2
2018-01-19T01:24:06.067Z,3.1
2018-01-19T01:25:09.535Z,3.1
2018-01-19T01:26:16.538Z,3.1
2018-01-19T01:27:20.992Z,3.1
2018-01-19T01:28:24.461Z,3.2
2018-01-19T01:29:27.861Z,3.2
2018-01-19T01:30:31.278Z,3.2
2018-01-19T01:31:34.844Z,3.2
2018-01-19T01:32:41.112Z,3.2
2018-01-19T01:33:44.579Z,3.2
2018-01-19T01:34:48.494Z,3.2
2018-01-19T01:35:52.090Z,3.2
2018-01-19T01:37:00.435Z,3.1
2018-01-19T01:38:03.951Z,3.1
2018-01-19T01:39:08.224Z,3.1
2018-01-19T01:40:12.234Z,3.1
2018-01-19T01:41:15.746Z,3
2018-01-19T01:42:19.790Z,3
2018-01-19T01:43:23.240Z,3
2018-01-19T01:44:28.864Z,3
2018-01-19T01:45:34.423Z,3
2018-01-19T01:46:39.129Z,3
2018-01-19T01:47:48.009Z,3
2018-01-19T01:48:51.596Z,3.1
2018-01-19T01:49:55.665Z,3
2018-01-19T01:50:59.023Z,3
2018-01-19T01:52:14.642Z,3
2018-01-19T01:53:18.085Z,3
2018-01-19T01:54:22.089Z,3
2018-01-19T01:55:26.421Z,3
2018-01-19T01:56:30.040Z,3.1
2018-01-19T01:57:33.543Z,3.1
2018-01-19T01:58:43.096Z,3.1
2018-01-19T01:59:47.112Z,3.1
2018-01-19T02:00:51.152Z,3
2018-01-19T02:01:54.594Z,3.1
2018-01-19T02:02:58.630Z,3.1
2018-01-19T02:04:01.916Z,3.1
2018-01-19T02:05:05.340Z,3
2018-01-19T02:06:09.141Z,3
2018-01-19T02:07:13.292Z,3
2018-01-19T02:08:17.789Z,3.1
2018-01-19T02:09:57.410Z,3.1
2018-01-19T02:11:00.832Z,3.1
2018-01-19T02:12:04.997Z,3.1
2018-01-19T02:13:09.081Z,3.1
2018-01-19T02:14:14.140Z,3.1
2018-01-19T02:15:17.586Z,3.1
2018-01-19T02:16:22.145Z,3.1
2018-01-19T02:17:26.172Z,3.1
2018-01-19T02:18:30.222Z,3.2
2018-01-19T02:19:34.943Z,3.1
2018-01-19T02:20:42.540Z,3.2
2018-01-19T02:21:46.013Z,3.2
2018-01-19T02:22:50.320Z,3.2
2018-01-19T02:23:54.159Z,3.2
2018-01-19T02:24:58.101Z,3.2
2018-01-19T02:26:01.938Z,3.2
2018-01-19T02:27:05.354Z,3.2
2018-01-19T02:28:11.696Z,3.2
2018-01-19T02:29:15.020Z,3.2
2018-01-19T02:30:18.640Z,3.2
2018-01-19T02:31:25.575Z,3.2
2018-01-19T02:32:30.473Z,3.2
2018-01-19T02:33:33.792Z,3.2
2018-01-19T02:34:37.895Z,3.2
2018-01-19T02:35:41.264Z,3.2
2018-01-19T02:36:44.285Z,3.2
2018-01-19T02:37:47.755Z,3.2
2018-01-19T02:38:51.172Z,3.2
2018-01-19T02:39:55.341Z,3.2
2018-01-19T02:40:58.784Z,3.1
2018-01-19T02:42:05.880Z,3.1
2018-01-19T02:43:11.435Z,3.2
2018-01-19T02:44:15.460Z,3.3
2018-01-19T02:45:19.420Z,3.2
2018-01-19T02:46:23.871Z,3.2
2018-01-19T02:47:27.638Z,3.3
2018-01-19T02:48:31.876Z,3.3
2018-01-19T02:49:36.445Z,3.3
2018-01-19T02:50:41.126Z,3.3
2018-01-19T02:51:44.578Z,3.3
2018-01-19T02:52:53.052Z,3.3
2018-01-19T02:53:56.560Z,3.3
2018-01-19T02:55:02.938Z,3.3
2018-01-19T02:56:06.307Z,3.3
2018-01-19T02:57:11.056Z,3.4
2018-01-19T02:58:15.160Z,3.3
2018-01-19T02:59:20.093Z,3.4
2018-01-19T03:00:24.192Z,3.3
2018-01-19T03:01:29.497Z,3.3
2018-01-19T03:02:32.987Z,3.3
2018-01-19T03:03:43.617Z,3.3
2018-01-19T03:04:47.447Z,3.2
2018-01-19T03:05:51.473Z,3.2
2018-01-19T03:06:54.881Z,3.3
2018-01-19T03:07:59.280Z,3.3
2018-01-19T03:09:03.387Z,3.3
2018-01-19T03:10:06.903Z,3.3
2018-01-19T03:11:10.405Z,3.2
2018-01-19T03:12:13.803Z,3.2
2018-01-19T03:13:17.193Z,3.2
2018-01-19T03:14:24.668Z,3.2
2018-01-19T03:15:28.736Z,3.2
2018-01-19T03:16:32.258Z,3.2
2018-01-19T03:17:36.206Z,3.1
2018-01-19T03:18:39.666Z,3.1
2018-01-19T03:19:43.559Z,3.2
2018-01-19T03:20:47.548Z,3.1
2018-01-19T03:21:51.664Z,3.1
2018-01-19T03:22:57.120Z,3.1
2018-01-19T03:24:00.750Z,3.1
2018-01-19T03:25:07.413Z,3.2
2018-01-19T03:26:11.832Z,3.1
2018-01-19T03:27:17.867Z,3.1
2018-01-19T03:28:22.704Z,3.2
2018-01-19T03:29:26.253Z,3.2
2018-01-19T03:30:32.711Z,3.1
2018-01-19T03:31:36.211Z,3.1
2018-01-19T03:32:41.803Z,3.1
2018-01-19T03:33:45.846Z,3.1
2018-01-19T03:34:49.283Z,3.1
2018-01-19T03:35:58.525Z,3.1
2018-01-19T03:37:01.848Z,3.1
2018-01-19T03:38:04.975Z,3
2018-01-19T03:39:08.368Z,3
2018-01-19T03:40:13.962Z,3
2018-01-19T03:41:17.396Z,3
2018-01-19T03:42:20.815Z,3.1
2018-01-19T03:43:24.132Z,3.1
2018-01-19T03:44:28.403Z,3.2
2018-01-19T03:45:33.112Z,3.2
2018-01-19T03:46:40.016Z,3.2
2018-01-19T03:47:43.950Z,3.2
2018-01-19T03:48:49.167Z,3.2
2018-01-19T03:49:53.209Z,3.2
2018-01-19T03:50:59.484Z,3.1
2018-01-19T03:52:02.974Z,3.2
2018-01-19T03:53:06.567Z,3.2
2018-01-19T03:54:12.180Z,3.3
2018-01-19T03:55:15.597Z,3.1
2018-01-19T03:56:18.958Z,3.2
2018-01-19T03:57:26.485Z,3.2
2018-01-19T03:58:34.283Z,3.2
2018-01-19T03:59:38.268Z,3.3
2018-01-19T04:00:41.672Z,3.2
2018-01-19T04:01:48.195Z,3.3
2018-01-19T04:02:53.902Z,3.3
2018-01-19T04:03:59.093Z,3.3
2018-01-19T04:05:04.564Z,3.4
2018-01-19T04:06:09.621Z,3.3
2018-01-19T04:07:12.949Z,3.3
2018-01-19T04:08:19.683Z,3.4
2018-01-19T04:09:23.077Z,3.4
2018-01-19T04:10:26.545Z,3.4
2018-01-19T04:11:30.747Z,3.4
2018-01-19T04:12:34.141Z,3.4
2018-01-19T04:13:39.833Z,3.3
2018-01-19T04:14:43.414Z,3.3
2018-01-19T04:15:46.732Z,3.4
2018-01-19T04:16:50.214Z,3.4
2018-01-19T04:17:55.785Z,3.3
2018-01-19T04:19:06.782Z,3.4
2018-01-19T04:20:10.177Z,3.4
2018-01-19T04:21:14.809Z,3.4
2018-01-19T04:22:18.679Z,3.4
2018-01-19T04:23:22.117Z,3.4
2018-01-19T04:24:26.478Z,3.4
2018-01-19T04:25:31.989Z,3.4
2018-01-19T04:26:35.403Z,3.4
2018-01-19T04:27:38.904Z,3.5
2018-01-19T04:28:42.066Z,3.4
2018-01-19T04:29:50.763Z,3.4
2018-01-19T04:30:56.039Z,3.4
2018-01-19T04:31:59.535Z,3.3
2018-01-19T04:33:03.352Z,3.4
2018-01-19T04:34:07.358Z,3.4
2018-01-19T04:35:13.618Z,3.3
2018-01-19T04:36:16.849Z,3.3
2018-01-19T04:37:20.414Z,3.3
2018-01-19T04:38:25.896Z,3.2
2018-01-19T04:39:29.349Z,3.2
2018-01-19T04:40:38.341Z,3.2
2018-01-19T04:41:42.388Z,3.2
2018-01-19T04:42:46.299Z,3.2
2018-01-19T04:43:49.796Z,3.2
2018-01-19T04:44:53.084Z,3.2
2018-01-19T04:45:56.621Z,3.1
2018-01-19T04:47:02.055Z,3.1
2018-01-19T04:48:05.440Z,3.1
2018-01-19T04:49:09.315Z,3.2
2018-01-19T04:50:13.158Z,3.2
2018-01-19T04:51:55.213Z,3.2
2018-01-19T04:52:58.581Z,3.1
2018-01-19T04:54:01.981Z,3.1
2018-01-19T04:55:05.407Z,3.1
2018-01-19T04:56:13.064Z,3.1
2018-01-19T04:57:16.960Z,3
2018-01-19T04:58:21.475Z,3.1
2018-01-19T04:59:25.611Z,3.1
2018-01-19T05:00:30.032Z,3.1
2018-01-19T05:01:33.361Z,3.1
2018-01-19T05:02:46.498Z,3.1
2018-01-19T05:03:50.516Z,2.9
2018-01-19T05:04:54.658Z,2.9
2018-01-19T05:05:58.710Z,3
2018-01-19T05:07:05.004Z,3
2018-01-19T05:08:08.378Z,2.9
2018-01-19T05:09:14.777Z,2.8
2018-01-19T05:10:18.134Z,2.8
2018-01-19T05:11:21.572Z,2.8
2018-01-19T05:12:27.055Z,2.8
2018-01-19T05:13:36.106Z,2.8
2018-01-19T05:14:39.956Z,2.7
2018-01-19T05:15:43.288Z,2.7
2018-01-19T05:16:48.138Z,2.7
2018-01-19T05:17:53.540Z,2.8
2018-01-19T05:18:57.012Z,2.8
2018-01-19T05:20:02.609Z,2.9
2018-01-19T05:21:08.097Z,2.8
2018-01-19T05:22:11.571Z,2.8
2018-01-19T05:23:15.120Z,2.7
2018-01-19T05:24:24.203Z,2.8
2018-01-19T05:25:29.098Z,2.7
2018-01-19T05:26:33.307Z,2.7
2018-01-19T05:27:36.717Z,2.7
2018-01-19T05:28:42.134Z,2.7
2018-01-19T05:29:47.437Z,2.7
2018-01-19T05:30:50.819Z,2.8
2018-01-19T05:31:56.446Z,2.7
2018-01-19T05:33:00.005Z,2.7
2018-01-19T05:34:03.489Z,2.7
2018-01-19T05:35:11.631Z,2.8
2018-01-19T05:36:15.040Z,2.7
2018-01-19T05:37:28.507Z,2.7
2018-01-19T05:38:31.872Z,2.7
2018-01-19T05:39:35.350Z,2.7
2018-01-19T05:40:39.558Z,2.7
2018-01-19T05:41:42.989Z,2.7
2018-01-19T05:42:46.510Z,2.8
2018-01-19T05:43:49.852Z,2.8
2018-01-19T05:44:53.381Z,2.9
2018-01-19T05:46:00.328Z,2.8
2018-01-19T05:47:03.756Z,2.8
2018-01-19T05:48:07.230Z,2.9
2018-01-19T05:49:11.337Z,2.8
2018-01-19T05:50:14.807Z,2.9
2018-01-19T05:51:17.856Z,2.9
2018-01-19T05:52:21.353Z,2.9
2018-01-19T05:53:25.444Z,3
2018-01-19T05:54:28.631Z,3
2018-01-19T05:55:31.971Z,3
2018-01-19T05:56:39.390Z,3.1
2018-01-19T05:57:42.787Z,3.1
2018-01-19T05:58:46.164Z,3.1
2018-01-19T05:59:49.585Z,3.2
2018-01-19T06:00:52.737Z,3.2
2018-01-19T06:01:56.766Z,3.2
2018-01-19T06:03:00.257Z,3.1
2018-01-19T06:04:03.701Z,3
2018-01-19T06:05:07.111Z,3
2018-01-19T06:06:10.458Z,2.9
2018-01-19T06:07:17.360Z,2.8
2018-01-19T06:08:21.160Z,2.6
2018-01-19T06:09:25.485Z,2.5
2018-01-19T06:10:31.164Z,2.3
2018-01-19T06:11:34.564Z,2.3
2018-01-19T06:12:40.248Z,2.2
2018-01-19T06:13:45.994Z,2.2
2018-01-19T06:14:50.089Z,2.2
2018-01-19T06:15:53.570Z,2.1
2018-01-19T06:16:57.136Z,2.1
2018-01-19T06:18:06.404Z,2
2018-01-19T06:19:09.544Z,2.1
2018-01-19T06:20:15.323Z,2
2018-01-19T06:21:20.252Z,2
2018-01-19T06:22:23.702Z,2
2018-01-19T06:23:27.686Z,2
2018-01-19T06:24:33.109Z,2.1
2018-01-19T06:25:37.154Z,2.1
2018-01-19T06:26:41.823Z,2.2
2018-01-19T06:27:45.251Z,2.1
2018-01-19T06:28:52.371Z,2.1
2018-01-19T06:29:55.975Z,2
2018-01-19T06:30:59.496Z,2
2018-01-19T06:32:02.948Z,1.9
2018-01-19T06:33:07.615Z,1.9
2018-01-19T06:34:11.652Z,1.9
2018-01-19T06:35:14.970Z,1.9
2018-01-19T06:36:18.432Z,1.9
2018-01-19T06:37:21.898Z,2
2018-01-19T06:38:25.209Z,1.9
2018-01-19T06:39:32.178Z,2
2018-01-19T06:40:35.580Z,2
2018-01-19T06:41:39.788Z,2
2018-01-19T06:42:43.266Z,2
2018-01-19T06:43:46.692Z,1.9
2018-01-19T06:44:50.053Z,1.9
2018-01-19T06:45:54.920Z,1.9
2018-01-19T06:46:59.102Z,1.9
2018-01-19T06:48:02.874Z,1.9
2018-01-19T06:49:06.072Z,1.9
2018-01-19T06:50:13.140Z,1.9
2018-01-19T06:51:17.384Z,1.9
2018-01-19T06:52:23.435Z,1.9
2018-01-19T06:53:26.850Z,1.9
2018-01-19T06:54:30.739Z,1.9
2018-01-19T06:55:34.812Z,2
2018-01-19T06:56:39.051Z,1.9
2018-01-19T06:57:42.166Z,1.9
2018-01-19T06:58:45.360Z,1.9
2018-01-19T06:59:48.830Z,1.9
2018-01-19T07:00:55.872Z,1.9
2018-01-19T07:01:59.463Z,2
2018-01-19T07:03:02.962Z,1.9
2018-01-19T07:04:07.259Z,1.9
2018-01-19T07:05:11.311Z,2
2018-01-19T07:06:14.809Z,1.9
2018-01-19T07:07:18.135Z,1.9
2018-01-19T07:08:23.455Z,1.9
2018-01-19T07:09:26.818Z,1.9
2018-01-19T07:10:30.390Z,1.9
2018-01-19T07:12:09.331Z,1.9
2018-01-19T07:13:13.261Z,1.9
2018-01-19T07:14:19.729Z,1.9
2018-01-19T07:15:23.397Z,1.9
2018-01-19T07:16:28.435Z,1.9
2018-01-19T07:17:31.905Z,1.9
2018-01-19T07:18:35.778Z,2
2018-01-19T07:19:39.056Z,2
2018-01-19T07:20:43.617Z,1.9
2018-01-19T07:21:47.117Z,2
2018-01-19T07:22:54.976Z,1.9
2018-01-19T07:23:58.357Z,1.9
2018-01-19T07:25:01.816Z,1.9
2018-01-19T07:26:05.251Z,1.9
2018-01-19T07:27:08.674Z,1.9
2018-01-19T07:28:12.130Z,1.8
2018-01-19T07:29:16.139Z,1.7
2018-01-19T07:30:19.654Z,1.8
2018-01-19T07:31:23.160Z,1.7
2018-01-19T07:32:27.169Z,1.7
2018-01-19T07:33:34.770Z,1.7
2018-01-19T07:34:38.273Z,1.8
2018-01-19T07:35:41.601Z,1.8
2018-01-19T07:36:45.135Z,1.8
2018-01-19T07:37:48.757Z,1.9
2018-01-19T07:38:52.076Z,1.9
2018-01-19T07:39:56.202Z,1.9
2018-01-19T07:40:59.740Z,1.8
2018-01-19T07:42:03.162Z,1.9
2018-01-19T07:43:09.569Z,1.9
2018-01-19T07:44:19.376Z,1.8
2018-01-19T07:45:22.776Z,1.8
2018-01-19T07:46:26.327Z,1.9
2018-01-19T07:47:29.754Z,1.7
2018-01-19T07:48:34.107Z,1.9
2018-01-19T07:49:37.671Z,1.9
2018-01-19T07:50:41.640Z,1.8
2018-01-19T07:51:45.143Z,1.9
2018-01-19T07:52:48.692Z,1.8
2018-01-19T07:53:52.107Z,1.8
2018-01-19T07:55:00.056Z,1.8
2018-01-19T07:56:03.566Z,1.8
2018-01-19T07:57:07.273Z,1.8
2018-01-19T07:58:10.743Z,1.8
2018-01-19T07:59:14.323Z,1.8
2018-01-19T08:00:17.919Z,1.9
2018-01-19T08:01:21.340Z,1.8
2018-01-19T08:02:24.900Z,1.9
2018-01-19T08:03:29.023Z,1.9
2018-01-19T08:04:32.453Z,1.9
2018-01-19T08:05:41.048Z,2
2018-01-19T08:06:44.517Z,2
2018-01-19T08:07:48.744Z,2
2018-01-19T08:08:52.060Z,2
2018-01-19T08:09:55.426Z,2.1
2018-01-19T08:10:58.812Z,2.1
2018-01-19T08:12:05.707Z,2
2018-01-19T08:13:09.878Z,1.8
2018-01-19T08:14:13.394Z,1.8
2018-01-19T08:15:16.948Z,1.9
2018-01-19T08:16:23.905Z,2
2018-01-19T08:17:28.165Z,2
2018-01-19T08:18:31.471Z,2
2018-01-19T08:19:35.476Z,2.1
2018-01-19T08:20:38.934Z,2.1
2018-01-19T08:21:42.411Z,2.2
2018-01-19T08:22:45.796Z,2.2
2018-01-19T08:23:49.285Z,2.2
2018-01-19T08:24:52.670Z,2.1
2018-01-19T08:25:56.190Z,2.2
2018-01-19T08:27:03.941Z,2.2
2018-01-19T08:28:07.580Z,2.2
2018-01-19T08:29:11.124Z,2.2
2018-01-19T08:30:14.666Z,2.2
2018-01-19T08:31:18.324Z,2.3
2018-01-19T08:32:21.797Z,2.2
2018-01-19T08:33:25.423Z,2.2
2018-01-19T08:34:28.793Z,2.2
2018-01-19T08:35:32.081Z,2.2
2018-01-19T08:36:35.526Z,2.2
2018-01-19T08:37:43.540Z,2.2
2018-01-19T08:38:47.133Z,2.1
2018-01-19T08:39:50.597Z,2.2
2018-01-19T08:40:54.077Z,2.2
2018-01-19T08:41:57.492Z,2.2
2018-01-19T08:43:00.841Z,2.1
2018-01-19T08:44:04.446Z,2.1
2018-01-19T08:45:08.057Z,2.1
2018-01-19T08:46:11.482Z,2.1
2018-01-19T08:47:15.058Z,2.2
2018-01-19T08:48:22.201Z,2.1
2018-01-19T08:49:25.605Z,2.2
2018-01-19T08:50:29.116Z,2.2
2018-01-19T08:51:33.143Z,2.2
2018-01-19T08:52:36.547Z,2.1
2018-01-19T08:53:39.961Z,2
2018-01-19T08:54:43.398Z,1.9
2018-01-19T08:55:46.962Z,1.9
2018-01-19T08:56:50.424Z,1.8
2018-01-19T08:57:53.955Z,1.7
2018-01-19T08:59:00.997Z,1.7
2018-01-19T09:00:04.343Z,1.7
2018-01-19T09:01:07.796Z,1.7
2018-01-19T09:02:12.067Z,1.6
2018-01-19T09:03:15.384Z,1.6
2018-01-19T09:04:19.465Z,1.5
2018-01-19T09:05:22.977Z,1.5
2018-01-19T09:06:26.486Z,1.5
2018-01-19T09:07:30.114Z,1.6
2018-01-19T09:08:34.041Z,1.6
2018-01-19T09:09:41.635Z,1.6
2018-01-19T09:10:45.804Z,1.7
2018-01-19T09:11:49.285Z,1.7
2018-01-19T09:12:52.794Z,1.7
2018-01-19T09:13:56.138Z,1.8
2018-01-19T09:15:01.218Z,1.9
2018-01-19T09:16:05.321Z,1.9
2018-01-19T09:17:08.696Z,2
2018-01-19T09:18:12.129Z,2
2018-01-19T09:19:15.625Z,2
2018-01-19T09:20:23.951Z,2
2018-01-19T09:21:27.320Z,2
2018-01-19T09:22:30.570Z,1.9
2018-01-19T09:23:35.068Z,2
2018-01-19T09:24:38.565Z,2
2018-01-19T09:25:42.563Z,2
2018-01-19T09:26:46.012Z,2.1
2018-01-19T09:27:49.512Z,2.1
2018-01-19T09:28:53.924Z,2
2018-01-19T09:29:58.449Z,2.1
2018-01-19T09:31:39.450Z,2.1
2018-01-19T09:32:43.307Z,2.1
2018-01-19T09:33:48.193Z,2.2
2018-01-19T09:34:51.585Z,2.2
2018-01-19T09:35:56.185Z,2.2
2018-01-19T09:36:59.822Z,2.2
2018-01-19T09:38:03.194Z,2.2
2018-01-19T09:39:06.633Z,2.2
2018-01-19T09:40:10.077Z,2.3
2018-01-19T09:41:13.484Z,2.4
2018-01-19T09:42:20.424Z,2.4
2018-01-19T09:43:24.311Z,2.4
2018-01-19T09:44:27.912Z,2.4
2018-01-19T09:45:31.431Z,2.5
2018-01-19T09:46:34.724Z,2.5
2018-01-19T09:47:38.083Z,2.5
2018-01-19T09:48:41.498Z,2.5
2018-01-19T09:49:44.935Z,2.5
2018-01-19T09:50:48.360Z,2.5
2018-01-19T09:51:54.035Z,2.5
2018-01-19T09:53:02.192Z,2.6
2018-01-19T09:54:06.558Z,2.5
2018-01-19T09:55:09.871Z,2.5
2018-01-19T09:56:15.735Z,2.5
2018-01-19T09:57:19.528Z,2.3
2018-01-19T09:58:23.007Z,2.1
2018-01-19T09:59:26.616Z,2
2018-01-19T10:00:30.009Z,1.8
2018-01-19T10:01:34.114Z,1.7
2018-01-19T10:02:37.275Z,1.6
2018-01-19T10:03:44.229Z,1.4
2018-01-19T10:04:47.786Z,1.4
2018-01-19T10:05:51.321Z,1.5
2018-01-19T10:06:54.739Z,1.6
2018-01-19T10:07:59.527Z,1.5
2018-01-19T10:09:03.999Z,1.6
2018-01-19T10:10:08.365Z,1.8
2018-01-19T10:11:12.491Z,1.9
2018-01-19T10:12:16.906Z,2.1
2018-01-19T10:13:21.855Z,2.1
2018-01-19T10:14:30.552Z,2.1
2018-01-19T10:15:34.469Z,2.2
2018-01-19T10:16:37.931Z,2.2
2018-01-19T10:17:41.420Z,2.2
2018-01-19T10:18:45.853Z,2.2
2018-01-19T10:19:49.247Z,2.2
2018-01-19T10:20:53.919Z,2.3
2018-01-19T10:21:59.302Z,2.3
2018-01-19T10:23:04.591Z,2.3
2018-01-19T10:24:09.478Z,2.3
2018-01-19T10:25:49.378Z,2.3
2018-01-19T10:26:53.841Z,2.3
2018-01-19T10:27:58.457Z,2.3
2018-01-19T10:29:02.441Z,2.3
2018-01-19T10:30:07.016Z,2.3
2018-01-19T10:31:11.375Z,2.3
2018-01-19T10:32:15.378Z,2.3
2018-01-19T10:33:19.484Z,2.3
2018-01-19T10:34:22.925Z,2.3
2018-01-19T10:35:27.660Z,2.3
2018-01-19T10:36:35.249Z,2.3
2018-01-19T10:37:39.227Z,2.4
2018-01-19T10:38:42.556Z,2.3
2018-01-19T10:39:46.985Z,2.3
2018-01-19T10:40:50.240Z,2.4
2018-01-19T10:41:55.522Z,2.4
2018-01-19T10:43:01.972Z,2.5
2018-01-19T10:44:05.646Z,2.4
2018-01-19T10:45:09.275Z,2.4
2018-01-19T10:46:13.386Z,2.3
2018-01-19T10:47:53.317Z,2.3
2018-01-19T10:48:57.562Z,2.4
2018-01-19T10:50:01.085Z,2.3
2018-01-19T10:51:04.622Z,2.4
2018-01-19T10:52:08.856Z,2.3
2018-01-19T10:53:12.306Z,2.3
2018-01-19T10:54:17.541Z,2.4
2018-01-19T10:55:20.913Z,2.4
2018-01-19T10:56:24.300Z,2.5
2018-01-19T10:57:28.913Z,2.5
2018-01-19T10:58:36.893Z,2.4
2018-01-19T10:59:40.520Z,2.5
2018-01-19T11:00:43.938Z,2.5
2018-01-19T11:01:48.986Z,2.5
2018-01-19T11:02:52.309Z,2.4
2018-01-19T11:03:55.664Z,2.5
2018-01-19T11:05:00.908Z,2.4
2018-01-19T11:06:04.871Z,2.4
2018-01-19T11:07:09.906Z,2.3
2018-01-19T11:08:13.216Z,2.2
2018-01-19T11:09:20.193Z,2.1
2018-01-19T11:10:24.261Z,2
2018-01-19T11:11:28.677Z,2
2018-01-19T11:12:32.229Z,2
2018-01-19T11:13:35.731Z,2
2018-01-19T11:14:39.127Z,2.1
2018-01-19T11:15:42.608Z,2.1
2018-01-19T11:16:45.944Z,2.1
2018-01-19T11:17:49.453Z,2.1
2018-01-19T11:18:52.829Z,2
2018-01-19T11:20:01.368Z,2
2018-01-19T11:21:05.017Z,2.1
2018-01-19T11:22:08.338Z,2.1
2018-01-19T11:23:11.726Z,2.1
2018-01-19T11:24:15.675Z,2.1
2018-01-19T11:25:19.271Z,2.1
2018-01-19T11:26:22.708Z,2.1
2018-01-19T11:27:26.693Z,2.1
2018-01-19T11:28:52.207Z,2.1
2018-01-19T11:30:06.566Z,2.2
2018-01-19T11:31:39.431Z,2.2
2018-01-19T11:32:51.575Z,2.3
2018-01-19T11:34:03.738Z,2.4
2018-01-19T11:35:11.036Z,2.5
2018-01-19T11:36:18.186Z,2.4
2018-01-19T11:37:21.751Z,2.5
2018-01-19T11:38:25.086Z,2.4
2018-01-19T11:39:28.452Z,2.4
2018-01-19T11:40:31.926Z,2.4
2018-01-19T11:41:35.927Z,2.4
2018-01-19T11:42:43.040Z,2.4
2018-01-19T11:43:46.554Z,2.4
2018-01-19T11:44:49.953Z,2.4
2018-01-19T11:45:53.397Z,2.2
2018-01-19T11:46:56.791Z,2.1
2018-01-19T11:48:00.762Z,2.2
2018-01-19T11:49:05.209Z,2.3
2018-01-19T11:50:09.191Z,2.4
2018-01-19T11:51:12.587Z,2.4
2018-01-19T11:52:16.019Z,2.4
2018-01-19T11:53:23.085Z,2.4
2018-01-19T11:54:27.495Z,2.4
2018-01-19T11:55:33.027Z,2.4
2018-01-19T11:56:36.472Z,2.5
2018-01-19T11:57:39.815Z,2.5
2018-01-19T11:58:43.887Z,2.6
2018-01-19T11:59:47.263Z,2.6
2018-01-19T12:00:51.482Z,2.6
2018-01-19T12:01:54.965Z,2.6
2018-01-19T12:02:59.079Z,2.6
2018-01-19T12:04:06.377Z,2.6
2018-01-19T12:05:09.813Z,2.6
2018-01-19T12:06:15.113Z,2.7
2018-01-19T12:07:20.317Z,2.7
2018-01-19T12:08:24.080Z,2.7
2018-01-19T12:09:28.866Z,2.7
2018-01-19T12:10:34.788Z,2.7
2018-01-19T12:11:40.897Z,2.7
2018-01-19T12:12:47.566Z,2.7
2018-01-19T12:13:51.023Z,2.7
2018-01-19T12:14:59.774Z,2.7
2018-01-19T12:16:05.116Z,2.6
2018-01-19T12:17:10.823Z,2.6
2018-01-19T12:18:15.787Z,2.6
2018-01-19T12:19:22.583Z,2.6
2018-01-19T12:20:26.664Z,2.6
2018-01-19T12:21:30.971Z,2.6
2018-01-19T12:22:35.427Z,2.6
2018-01-19T12:23:38.833Z,2.6
2018-01-19T12:24:42.282Z,2.6
2018-01-19T12:25:50.244Z,2.5
2018-01-19T12:26:56.564Z,2.5
2018-01-19T12:28:01.775Z,2.6
2018-01-19T12:29:06.470Z,2.7
2018-01-19T12:30:12.216Z,2.7
2018-01-19T12:31:18.544Z,2.8
2018-01-19T12:32:25.077Z,2.8
2018-01-19T12:33:30.310Z,2.8
2018-01-19T12:34:36.435Z,2.9
2018-01-19T12:35:41.189Z,2.8
2018-01-19T12:36:53.808Z,2.8
2018-01-19T12:37:58.884Z,2.8
2018-01-19T12:39:03.591Z,2.8
2018-01-19T12:40:07.831Z,2.8
2018-01-19T12:41:12.650Z,2.7
2018-01-19T12:42:18.223Z,2.6
2018-01-19T12:43:22.281Z,2.7
2018-01-19T12:44:27.369Z,2.8
2018-01-19T12:45:30.958Z,2.8
2018-01-19T12:46:35.140Z,2.8
2018-01-19T12:47:44.384Z,2.8
2018-01-19T12:48:49.770Z,2.8
2018-01-19T12:49:53.282Z,2.8
2018-01-19T12:50:59.226Z,2.8
2018-01-19T12:52:03.492Z,2.8
2018-01-19T12:53:07.572Z,2.9
2018-01-19T12:54:11.768Z,2.8
2018-01-19T12:55:17.363Z,2.8
2018-01-19T12:56:21.337Z,2.8
2018-01-19T12:57:25.589Z,2.8
2018-01-19T12:58:34.323Z,2.8
2018-01-19T12:59:38.384Z,2.8
2018-01-19T13:00:41.748Z,2.8
2018-01-19T13:01:46.378Z,2.8
2018-01-19T13:02:51.366Z,2.8
2018-01-19T13:03:55.513Z,2.8
2018-01-19T13:05:00.913Z,2.8
2018-01-19T13:06:05.944Z,2.8
2018-01-19T13:07:13.017Z,2.8
2018-01-19T13:08:17.012Z,2.8
2018-01-19T13:09:24.040Z,2.8
2018-01-19T13:10:28.421Z,2.8
2018-01-19T13:11:32.019Z,2.8
2018-01-19T13:12:35.450Z,2.7
2018-01-19T13:13:38.992Z,2.7
2018-01-19T13:14:42.417Z,2.7
2018-01-19T13:15:45.988Z,2.7
2018-01-19T13:16:49.458Z,2.7
2018-01-19T13:17:53.054Z,2.7
2018-01-19T13:18:56.526Z,2.7
2018-01-19T13:20:04.022Z,2.7
2018-01-19T13:21:07.444Z,2.7
2018-01-19T13:22:10.970Z,2.7
2018-01-19T13:23:14.394Z,2.7
2018-01-19T13:24:18.798Z,2.7
2018-01-19T13:25:22.369Z,2.7
2018-01-19T13:26:25.765Z,2.7
2018-01-19T13:27:29.233Z,2.8
2018-01-19T13:28:32.685Z,2.8
2018-01-19T13:29:36.156Z,2.9
2018-01-19T13:30:42.988Z,2.9
2018-01-19T13:31:46.379Z,2.9
2018-01-19T13:32:50.394Z,3
2018-01-19T13:33:53.918Z,3
2018-01-19T13:34:57.483Z,3
2018-01-19T13:36:00.897Z,3
2018-01-19T13:37:04.273Z,3
2018-01-19T13:38:07.649Z,3
2018-01-19T13:39:11.162Z,3
2018-01-19T13:40:14.624Z,3
2018-01-19T13:41:21.628Z,3
2018-01-19T13:42:25.116Z,3
2018-01-19T13:43:28.611Z,3
2018-01-19T13:44:32.659Z,3
2018-01-19T13:45:36.182Z,2.9
2018-01-19T13:46:39.602Z,2.9
2018-01-19T13:47:43.240Z,2.9
2018-01-19T13:48:46.716Z,2.9
2018-01-19T13:49:50.805Z,2.9
2018-01-19T13:50:54.073Z,2.9
2018-01-19T13:52:01.164Z,2.8
2018-01-19T13:53:04.609Z,2.7
2018-01-19T13:54:07.963Z,2.7
2018-01-19T13:55:11.965Z,2.6
2018-01-19T13:56:16.051Z,2.6
2018-01-19T13:57:19.541Z,2.6
2018-01-19T13:58:23.412Z,2.7
2018-01-19T13:59:26.893Z,2.7
2018-01-19T14:00:30.132Z,2.7
2018-01-19T14:01:33.541Z,2.7
2018-01-19T14:02:40.310Z,2.7
2018-01-19T14:03:43.644Z,2.7
2018-01-19T14:04:47.120Z,2.7
2018-01-19T14:05:50.520Z,2.8
2018-01-19T14:06:54.983Z,2.7
2018-01-19T14:07:58.412Z,2.8
2018-01-19T14:09:01.852Z,2.8
2018-01-19T14:10:05.350Z,2.8
2018-01-19T14:11:09.679Z,2.8
2018-01-19T14:12:13.122Z,2.8
2018-01-19T14:13:51.812Z,2.8
2018-01-19T14:14:55.955Z,2.8
2018-01-19T14:15:59.509Z,2.8
2018-01-19T14:17:02.958Z,2.8
2018-01-19T14:18:07.023Z,2.8
2018-01-19T14:19:10.908Z,2.7
2018-01-19T14:20:14.405Z,2.7
2018-01-19T14:21:18.795Z,2.7
2018-01-19T14:22:23.202Z,2.7
2018-01-19T14:23:27.731Z,2.6
2018-01-19T14:24:36.875Z,2.6
2018-01-19T14:25:40.920Z,2.6
2018-01-19T14:26:44.513Z,2.6
2018-01-19T14:27:48.121Z,2.6
2018-01-19T14:28:52.658Z,2.6
2018-01-19T14:29:56.760Z,2.5
2018-01-19T14:31:01.556Z,2.5
2018-01-19T14:32:06.489Z,2.5
2018-01-19T14:33:09.959Z,2.5
2018-01-19T14:34:14.320Z,2.5
2018-01-19T14:35:22.670Z,2.4
2018-01-19T14:36:26.914Z,2.4
2018-01-19T14:37:32.004Z,2.4
2018-01-19T14:38:35.368Z,2.4
2018-01-19T14:39:39.620Z,2.4
2018-01-19T14:40:44.413Z,2.3
2018-01-19T14:41:49.148Z,2.3
2018-01-19T14:42:53.294Z,2.4
2018-01-19T14:43:56.817Z,2.3
2018-01-19T14:45:00.358Z,2.3
2018-01-19T14:46:09.328Z,2.3
2018-01-19T14:47:15.602Z,2.2
2018-01-19T14:48:20.843Z,2.2
2018-01-19T14:49:24.604Z,2.2
2018-01-19T14:50:28.065Z,2.2
2018-01-19T14:51:33.041Z,2.1
2018-01-19T14:52:36.424Z,2.1
2018-01-19T14:53:41.004Z,2.1
2018-01-19T14:54:45.099Z,2
2018-01-19T14:55:48.505Z,2.1
2018-01-19T14:56:56.870Z,2.1
2018-01-19T14:58:01.044Z,2
2018-01-19T14:59:05.027Z,2
2018-01-19T15:00:08.589Z,2